createdAt,value
2017-06-17T00:00:46.605Z,0.00
2017-06-17T00:01:41.268Z,0.00
2017-06-17T00:02:41.252Z,0.00
2017-06-17T00:03:36.286Z,0.00
2017-06-17T00:04:36.368Z,0.00
2017-06-17T00:05:31.361Z,0.00
2017-06-17T00:06:26.392Z,0.00
2017-06-17T00:07:20.507Z,0.00
2017-06-17T00:08:08.464Z,0.00
2017-06-17T00:08:56.570Z,0.00
2017-06-17T00:09:51.687Z,0.00
2017-06-17T00:10:40.198Z,0.00
2017-06-17T00:11:27.680Z,0.00
2017-06-17T00:12:15.721Z,0.00
2017-06-17T00:13:03.727Z,0.00
2017-06-17T00:13:51.841Z,0.00
2017-06-17T00:14:40.816Z,0.00
2017-06-17T00:15:29.478Z,0.00
2017-06-17T00:16:16.885Z,0.00
2017-06-17T00:17:16.937Z,0.00
2017-06-17T00:18:16.984Z,0.00
2017-06-17T00:19:05.009Z,0.00
2017-06-17T00:20:05.091Z,0.00
2017-06-17T00:21:00.063Z,0.00
2017-06-17T00:21:54.125Z,0.00
2017-06-17T00:22:54.147Z,0.00
2017-06-17T00:23:49.133Z,0.00
2017-06-17T00:24:44.190Z,0.00
2017-06-17T00:25:45.301Z,0.00
2017-06-17T00:26:45.443Z,0.00
2017-06-17T00:27:45.275Z,0.00
2017-06-17T00:28:40.386Z,0.00
2017-06-17T00:29:34.373Z,0.00
2017-06-17T00:30:34.408Z,0.00
2017-06-17T00:31:29.444Z,0.00
2017-06-17T00:32:29.465Z,0.00
2017-06-17T00:33:23.514Z,0.00
2017-06-17T00:34:23.564Z,0.00
2017-06-17T00:35:18.584Z,0.00
2017-06-17T00:36:13.641Z,0.00
2017-06-17T00:37:13.661Z,0.00
2017-06-17T00:38:08.713Z,0.00
2017-06-17T00:38:57.737Z,0.00
2017-06-17T00:39:51.720Z,0.00
2017-06-17T00:40:40.818Z,0.00
2017-06-17T00:41:35.840Z,0.00
2017-06-17T00:42:35.815Z,0.00
2017-06-17T00:43:30.937Z,0.00
2017-06-17T00:44:25.909Z,0.00
2017-06-17T00:45:26.933Z,0.00
2017-06-17T00:46:27.988Z,0.00
2017-06-17T00:47:28.002Z,0.00
2017-06-17T00:48:29.049Z,0.00
2017-06-17T00:49:23.057Z,0.00
2017-06-17T00:50:23.110Z,0.00
2017-06-17T00:51:17.105Z,0.00
2017-06-17T00:52:18.598Z,0.00
2017-06-17T00:53:07.163Z,0.00
2017-06-17T00:54:07.240Z,0.00
2017-06-17T00:55:08.418Z,0.00
2017-06-17T00:56:09.310Z,0.00
2017-06-17T00:57:03.352Z,0.00
2017-06-17T00:58:03.377Z,0.00
2017-06-17T00:58:58.394Z,0.00
2017-06-17T00:59:53.471Z,0.00
2017-06-17T01:00:54.524Z,0.00
2017-06-17T01:01:55.465Z,0.00
2017-06-17T01:02:50.552Z,0.00
2017-06-17T01:03:44.584Z,0.00
2017-06-17T01:04:44.726Z,0.00
2017-06-17T01:05:44.723Z,0.00
2017-06-17T01:06:39.710Z,0.00
2017-06-17T01:07:28.698Z,0.00
2017-06-17T01:08:22.819Z,0.00
2017-06-17T01:09:17.776Z,0.00
2017-06-17T01:10:11.994Z,0.00
2017-06-17T01:10:59.850Z,0.00
2017-06-17T01:11:54.934Z,0.00
2017-06-17T01:12:48.935Z,0.00
2017-06-17T01:13:49.123Z,0.00
2017-06-17T01:14:43.995Z,0.00
2017-06-17T01:15:39.082Z,0.00
2017-06-17T01:16:39.096Z,0.00
2017-06-17T01:17:34.202Z,0.00
2017-06-17T01:18:29.167Z,0.00
2017-06-17T01:19:17.161Z,0.00
2017-06-17T01:20:12.638Z,0.00
2017-06-17T01:21:01.290Z,0.00
2017-06-17T01:21:49.317Z,0.00
2017-06-17T01:22:49.391Z,0.00
2017-06-17T01:23:43.348Z,0.00
2017-06-17T01:24:38.404Z,0.00
2017-06-17T01:25:32.770Z,0.00
2017-06-17T01:26:32.470Z,0.00
2017-06-17T01:27:21.611Z,0.00
2017-06-17T01:28:15.966Z,0.00
2017-06-17T01:29:10.662Z,0.00
2017-06-17T01:30:06.119Z,0.00
2017-06-17T01:30:53.604Z,0.00
2017-06-17T01:31:42.710Z,0.00
2017-06-17T01:32:31.366Z,0.00
2017-06-17T01:33:18.848Z,0.00
2017-06-17T01:34:07.787Z,0.00
2017-06-17T01:34:55.895Z,0.00
2017-06-17T01:35:43.912Z,0.00
2017-06-17T01:36:33.227Z,0.00
2017-06-17T01:37:28.012Z,0.00
2017-06-17T01:38:22.055Z,0.00
2017-06-17T01:39:22.057Z,0.00
2017-06-17T01:40:11.109Z,0.00
2017-06-17T01:41:05.164Z,0.00
2017-06-17T01:42:05.214Z,0.00
2017-06-17T01:43:05.201Z,0.00
2017-06-17T01:44:00.277Z,0.00
2017-06-17T01:44:54.278Z,0.00
2017-06-17T01:45:43.361Z,0.00
2017-06-17T01:46:38.385Z,0.00
2017-06-17T01:47:32.448Z,0.00
2017-06-17T01:48:27.484Z,0.00
2017-06-17T01:49:27.557Z,0.00
2017-06-17T01:50:17.088Z,0.00
2017-06-17T01:51:05.573Z,0.00
2017-06-17T01:51:53.586Z,0.00
2017-06-17T01:52:42.662Z,0.00
2017-06-17T01:53:31.673Z,0.00
2017-06-17T01:54:19.699Z,0.00
2017-06-17T01:55:08.807Z,0.00
2017-06-17T01:55:57.808Z,0.00
2017-06-17T01:56:51.851Z,0.00
2017-06-17T01:57:40.947Z,0.00
2017-06-17T01:58:28.975Z,0.00
2017-06-17T01:59:18.016Z,0.00
2017-06-17T02:00:13.106Z,0.00
2017-06-17T02:01:13.054Z,0.00
2017-06-17T02:02:08.109Z,0.00
2017-06-17T02:03:02.148Z,0.00
2017-06-17T02:03:51.175Z,0.00
2017-06-17T02:04:39.211Z,0.00
2017-06-17T02:05:34.341Z,0.00
2017-06-17T02:06:23.296Z,0.00
2017-06-17T02:07:23.343Z,0.00
2017-06-17T02:08:23.657Z,0.00
2017-06-17T02:09:12.428Z,0.00
2017-06-17T02:10:07.611Z,0.00
2017-06-17T02:11:07.943Z,0.00
2017-06-17T02:12:02.537Z,0.00
2017-06-17T02:12:50.580Z,0.00
2017-06-17T02:13:45.597Z,0.00
2017-06-17T02:14:40.645Z,0.00
2017-06-17T02:15:28.721Z,0.00
2017-06-17T02:16:16.727Z,0.00
2017-06-17T02:17:10.747Z,0.00
2017-06-17T02:18:04.777Z,0.00
2017-06-17T02:18:52.806Z,0.00
2017-06-17T02:19:46.881Z,0.00
2017-06-17T02:20:41.159Z,0.00
2017-06-17T02:21:41.987Z,0.00
2017-06-17T02:22:36.003Z,0.00
2017-06-17T02:23:30.134Z,0.00
2017-06-17T02:24:25.040Z,0.00
2017-06-17T02:25:14.061Z,0.00
2017-06-17T02:26:08.156Z,0.00
2017-06-17T02:26:57.569Z,0.00
2017-06-17T02:27:51.213Z,0.00
2017-06-17T02:28:46.183Z,0.00
2017-06-17T02:29:47.313Z,0.00
2017-06-17T02:30:41.287Z,0.00
2017-06-17T02:31:35.402Z,0.00
2017-06-17T02:32:35.405Z,0.00
2017-06-17T02:33:29.421Z,0.00
2017-06-17T02:34:18.495Z,0.00
2017-06-17T02:35:18.521Z,0.00
2017-06-17T02:36:07.581Z,0.00
2017-06-17T02:37:02.607Z,0.00
2017-06-17T02:38:02.698Z,0.00
2017-06-17T02:38:56.694Z,0.00
2017-06-17T02:39:50.811Z,0.00
2017-06-17T02:40:39.775Z,0.00
2017-06-17T02:41:39.801Z,0.00
2017-06-17T02:42:34.813Z,0.00
2017-06-17T02:43:34.868Z,0.00
2017-06-17T02:44:29.513Z,0.00
2017-06-17T02:45:22.890Z,0.00
2017-06-17T02:46:17.962Z,0.00
2017-06-17T02:47:06.992Z,0.00
2017-06-17T02:48:01.076Z,0.00
2017-06-17T02:48:56.105Z,0.00
2017-06-17T02:49:51.093Z,0.00
2017-06-17T02:50:46.104Z,0.00
2017-06-17T02:51:40.161Z,0.00
2017-06-17T02:52:28.745Z,0.00
2017-06-17T02:53:23.302Z,0.00
2017-06-17T02:54:17.462Z,0.00
2017-06-17T02:55:11.970Z,0.00
2017-06-17T02:56:11.425Z,0.00
2017-06-17T02:57:06.408Z,0.00
2017-06-17T02:58:00.460Z,0.00
2017-06-17T02:58:48.509Z,0.00
2017-06-17T02:59:42.539Z,0.00
2017-06-17T03:00:31.615Z,0.00
2017-06-17T03:01:25.878Z,0.00
2017-06-17T03:02:19.678Z,0.00
2017-06-17T03:03:13.724Z,0.00
2017-06-17T03:04:13.768Z,0.00
2017-06-17T03:05:02.809Z,0.00
2017-06-17T03:05:51.818Z,0.00
2017-06-17T03:06:45.855Z,0.00
2017-06-17T03:07:40.216Z,0.00
2017-06-17T03:08:33.980Z,0.00
2017-06-17T03:09:33.970Z,0.00
2017-06-17T03:10:23.091Z,0.00
2017-06-17T03:11:23.069Z,0.00
2017-06-17T03:12:17.115Z,0.00
2017-06-17T03:13:05.083Z,0.00
2017-06-17T03:14:05.299Z,0.00
2017-06-17T03:15:00.203Z,0.00
2017-06-17T03:15:54.278Z,0.00
2017-06-17T03:16:48.267Z,0.00
2017-06-17T03:17:42.282Z,0.00
2017-06-17T03:18:36.402Z,0.00
2017-06-17T03:19:24.445Z,0.00
2017-06-17T03:20:19.490Z,0.00
2017-06-17T03:21:14.529Z,0.00
2017-06-17T03:22:09.005Z,0.00
2017-06-17T03:22:57.554Z,0.00
2017-06-17T03:23:52.608Z,0.00
2017-06-17T03:24:46.624Z,0.01
2017-06-17T03:25:42.300Z,0.01
2017-06-17T03:26:29.924Z,0.01
2017-06-17T03:27:24.131Z,0.01
2017-06-17T03:28:17.839Z,0.01
2017-06-17T03:29:06.827Z,0.01
2017-06-17T03:29:54.950Z,0.01
2017-06-17T03:30:54.899Z,0.01
2017-06-17T03:31:43.987Z,0.01
2017-06-17T03:32:32.020Z,0.01
2017-06-17T03:33:32.070Z,0.01
2017-06-17T03:34:26.108Z,0.01
2017-06-17T03:35:26.119Z,0.01
2017-06-17T03:36:15.161Z,0.01
2017-06-17T03:37:10.193Z,0.01
2017-06-17T03:38:10.540Z,0.01
2017-06-17T03:38:59.845Z,0.01
2017-06-17T03:39:53.337Z,0.01
2017-06-17T03:40:53.390Z,0.01
2017-06-17T03:41:42.424Z,0.01
2017-06-17T03:42:30.518Z,0.01
2017-06-17T03:43:30.497Z,0.01
2017-06-17T03:44:24.494Z,0.01
2017-06-17T03:45:12.708Z,0.01
2017-06-17T03:46:13.614Z,0.01
2017-06-17T03:47:08.589Z,0.01
2017-06-17T03:48:03.702Z,0.01
2017-06-17T03:48:58.203Z,0.01
2017-06-17T03:49:53.188Z,0.02
2017-06-17T03:50:41.784Z,0.02
2017-06-17T03:51:41.888Z,0.02
2017-06-17T03:52:36.866Z,0.02
2017-06-17T03:53:38.081Z,0.02
2017-06-17T03:54:38.371Z,0.02
2017-06-17T03:55:33.048Z,0.02
2017-06-17T03:56:27.599Z,0.02
2017-06-17T03:57:21.561Z,0.02
2017-06-17T03:58:16.649Z,0.02
2017-06-17T03:59:11.705Z,0.02
2017-06-17T03:59:59.699Z,0.02
2017-06-17T04:00:59.234Z,0.02
2017-06-17T04:01:59.643Z,0.02
2017-06-17T04:02:54.693Z,0.02
2017-06-17T04:03:43.858Z,0.03
2017-06-17T04:04:32.893Z,0.03
2017-06-17T04:05:26.445Z,0.03
2017-06-17T04:06:26.497Z,0.03
2017-06-17T04:07:26.476Z,0.03
2017-06-17T04:08:20.526Z,0.03
2017-06-17T04:09:15.591Z,0.03
2017-06-17T04:10:10.479Z,0.03
2017-06-17T04:11:03.613Z,0.03
2017-06-17T04:11:52.703Z,0.03
2017-06-17T04:12:40.703Z,0.03
2017-06-17T04:13:35.350Z,0.03
2017-06-17T04:14:24.389Z,0.03
2017-06-17T04:15:17.965Z,0.03
2017-06-17T04:16:12.084Z,0.03
2017-06-17T04:17:00.962Z,0.03
2017-06-17T04:17:48.993Z,0.03
2017-06-17T04:18:38.001Z,0.03
2017-06-17T04:19:26.076Z,0.02
2017-06-17T04:20:14.331Z,0.02
2017-06-17T04:21:03.175Z,0.02
2017-06-17T04:21:51.594Z,0.02
2017-06-17T04:22:45.674Z,0.02
2017-06-17T04:23:39.295Z,0.03
2017-06-17T04:24:27.974Z,0.03
2017-06-17T04:25:16.639Z,0.03
2017-06-17T04:26:11.416Z,0.03
2017-06-17T04:27:05.507Z,0.03
2017-06-17T04:28:06.499Z,0.03
2017-06-17T04:29:01.976Z,0.03
2017-06-17T04:30:02.183Z,0.03
2017-06-17T04:31:07.922Z,0.03
2017-06-17T04:32:02.699Z,0.03
2017-06-17T04:32:56.663Z,0.03
2017-06-17T04:33:57.178Z,0.03
2017-06-17T04:34:52.351Z,0.03
2017-06-17T04:35:46.856Z,0.03
2017-06-17T04:36:46.858Z,0.03
2017-06-17T04:37:41.898Z,0.03
2017-06-17T04:38:36.915Z,0.03
2017-06-17T04:39:30.983Z,0.03
2017-06-17T04:40:32.001Z,0.03
2017-06-17T04:41:27.053Z,0.03
2017-06-17T04:42:27.092Z,0.03
2017-06-17T04:43:27.087Z,0.03
2017-06-17T04:44:27.744Z,0.03
2017-06-17T04:45:27.693Z,0.03
2017-06-17T04:46:27.235Z,0.03
2017-06-17T04:47:27.704Z,0.03
2017-06-17T04:48:27.948Z,0.03
2017-06-17T04:49:27.326Z,0.03
2017-06-17T04:50:27.345Z,0.03
2017-06-17T04:51:27.932Z,0.03
2017-06-17T04:52:28.040Z,0.03
2017-06-17T04:53:27.947Z,0.03
2017-06-17T04:54:22.149Z,0.03
2017-06-17T04:55:22.124Z,0.03
2017-06-17T04:56:16.628Z,0.03
2017-06-17T04:57:11.583Z,0.03
2017-06-17T04:58:00.644Z,0.03
2017-06-17T04:58:49.765Z,0.03
2017-06-17T04:59:43.764Z,0.03
2017-06-17T05:00:43.980Z,0.03
2017-06-17T05:01:38.794Z,0.03
2017-06-17T05:02:38.881Z,0.03
2017-06-17T05:03:33.897Z,0.03
2017-06-17T05:04:29.158Z,0.03
2017-06-17T05:05:22.997Z,0.03
2017-06-17T05:06:24.076Z,0.03
2017-06-17T05:07:24.073Z,0.03
2017-06-17T05:08:19.140Z,0.03
2017-06-17T05:09:25.117Z,0.03
2017-06-17T05:10:25.606Z,0.04
2017-06-17T05:11:26.738Z,0.04
2017-06-17T05:12:27.768Z,0.04
2017-06-17T05:13:27.772Z,0.04
2017-06-17T05:14:27.844Z,0.04
2017-06-17T05:15:21.923Z,0.04
2017-06-17T05:16:21.905Z,0.04
2017-06-17T05:17:16.367Z,0.04
2017-06-17T05:18:15.983Z,0.04
2017-06-17T05:19:05.075Z,0.05
2017-06-17T05:19:54.096Z,0.05
2017-06-17T05:20:48.193Z,0.05
2017-06-17T05:21:48.240Z,0.05
2017-06-17T05:22:37.837Z,0.05
2017-06-17T05:23:30.716Z,0.05
2017-06-17T05:24:31.228Z,0.06
2017-06-17T05:25:26.382Z,0.06
2017-06-17T05:26:21.323Z,0.06
2017-06-17T05:27:15.387Z,0.06
2017-06-17T05:28:15.522Z,0.06
2017-06-17T05:29:10.536Z,0.07
2017-06-17T05:30:05.563Z,0.07
2017-06-17T05:31:05.350Z,0.07
2017-06-17T05:32:00.669Z,0.07
2017-06-17T05:32:55.589Z,0.06
2017-06-17T05:33:44.737Z,0.06
2017-06-17T05:34:39.801Z,0.06
2017-06-17T05:35:39.797Z,0.06
2017-06-17T05:36:34.785Z,0.05
2017-06-17T05:37:29.892Z,0.05
2017-06-17T05:38:23.912Z,0.05
2017-06-17T05:39:19.053Z,0.05
2017-06-17T05:40:08.546Z,0.05
2017-06-17T05:40:55.564Z,0.05
2017-06-17T05:41:44.103Z,0.05
2017-06-17T05:42:37.585Z,0.05
2017-06-17T05:43:25.622Z,0.05
2017-06-17T05:44:26.301Z,0.06
2017-06-17T05:45:25.653Z,0.06
2017-06-17T05:46:25.709Z,0.06
2017-06-17T05:47:25.767Z,0.07
2017-06-17T05:48:26.391Z,0.07
2017-06-17T05:49:19.837Z,0.07
2017-06-17T05:50:07.919Z,0.07
2017-06-17T05:50:55.888Z,0.07
2017-06-17T05:51:44.180Z,0.07
2017-06-17T05:52:33.565Z,0.07
2017-06-17T05:53:21.489Z,0.07
2017-06-17T05:54:10.445Z,0.07
2017-06-17T05:54:58.691Z,0.07
2017-06-17T05:55:47.091Z,0.07
2017-06-17T05:56:35.774Z,0.07
2017-06-17T05:57:24.791Z,0.07
2017-06-17T05:58:13.933Z,0.08
2017-06-17T05:59:13.865Z,0.08
2017-06-17T06:00:08.463Z,0.08
2017-06-17T06:01:03.291Z,0.08
2017-06-17T06:01:57.057Z,0.08
2017-06-17T06:02:52.099Z,0.08
2017-06-17T06:03:53.240Z,0.09
2017-06-17T06:04:47.192Z,0.09
2017-06-17T06:05:41.364Z,0.10
2017-06-17T06:06:35.146Z,0.10
2017-06-17T06:07:30.103Z,0.11
2017-06-17T06:08:18.357Z,0.11
2017-06-17T06:09:12.353Z,0.11
2017-06-17T06:10:00.454Z,0.12
2017-06-17T06:10:47.912Z,0.12
2017-06-17T06:11:37.817Z,0.13
2017-06-17T06:12:31.175Z,0.13
2017-06-17T06:13:31.605Z,0.14
2017-06-17T06:14:25.694Z,0.14
2017-06-17T06:15:20.152Z,0.14
2017-06-17T06:16:15.557Z,0.15
2017-06-17T06:17:10.766Z,0.16
2017-06-17T06:18:05.757Z,0.16
2017-06-17T06:18:54.834Z,0.16
2017-06-17T06:19:48.642Z,0.16
2017-06-17T06:20:42.718Z,0.15
2017-06-17T06:21:37.069Z,0.16
2017-06-17T06:22:32.101Z,0.16
2017-06-17T06:23:20.109Z,0.16
2017-06-17T06:24:08.167Z,0.17
2017-06-17T06:24:57.209Z,0.17
2017-06-17T06:25:46.235Z,0.18
2017-06-17T06:26:46.284Z,0.17
2017-06-17T06:27:35.384Z,0.17
2017-06-17T06:28:29.378Z,0.16
2017-06-17T06:29:18.438Z,0.16
2017-06-17T06:30:06.449Z,0.16
2017-06-17T06:31:00.573Z,0.16
2017-06-17T06:31:48.613Z,0.15
2017-06-17T06:32:36.625Z,0.15
2017-06-17T06:33:25.657Z,0.15
2017-06-17T06:34:13.680Z,0.16
2017-06-17T06:35:02.775Z,0.16
2017-06-17T06:35:56.810Z,0.16
2017-06-17T06:36:51.865Z,0.16
2017-06-17T06:37:45.935Z,0.16
2017-06-17T06:38:39.920Z,0.15
2017-06-17T06:39:28.956Z,0.15
2017-06-17T06:40:17.056Z,0.15
2017-06-17T06:41:06.082Z,0.15
2017-06-17T06:42:00.127Z,0.15
2017-06-17T06:42:49.287Z,0.14
2017-06-17T06:43:43.050Z,0.14
2017-06-17T06:44:38.202Z,0.14
2017-06-17T06:45:32.284Z,0.13
2017-06-17T06:46:27.290Z,0.11
2017-06-17T06:47:22.343Z,0.12
2017-06-17T06:48:16.431Z,0.13
2017-06-17T06:49:10.462Z,0.13
2017-06-17T06:50:05.437Z,0.13
2017-06-17T06:50:59.536Z,0.13
2017-06-17T06:51:53.577Z,0.13
2017-06-17T06:52:53.640Z,0.13
2017-06-17T06:53:42.108Z,0.12
2017-06-17T06:54:36.752Z,0.11
2017-06-17T06:55:24.701Z,0.10
2017-06-17T06:56:24.885Z,0.11
2017-06-17T06:57:18.843Z,0.11
2017-06-17T06:58:13.725Z,0.11
2017-06-17T06:59:14.029Z,0.12
2017-06-17T07:00:02.717Z,0.13
2017-06-17T07:00:51.749Z,0.13
2017-06-17T07:01:45.523Z,0.13
2017-06-17T07:02:33.871Z,0.14
2017-06-17T07:03:34.173Z,0.15
2017-06-17T07:04:22.078Z,0.16
2017-06-17T07:05:10.799Z,0.16
2017-06-17T07:05:59.285Z,0.17
2017-06-17T07:06:47.813Z,0.17
2017-06-17T07:07:41.889Z,0.17
2017-06-17T07:08:36.893Z,0.17
2017-06-17T07:09:25.948Z,0.17
2017-06-17T07:10:15.664Z,0.16
2017-06-17T07:11:10.518Z,0.16
2017-06-17T07:11:59.556Z,0.16
2017-06-17T07:12:48.677Z,0.15
2017-06-17T07:13:43.755Z,0.15
2017-06-17T07:14:37.849Z,0.15
2017-06-17T07:15:37.831Z,0.14
2017-06-17T07:16:26.829Z,0.13
2017-06-17T07:17:15.926Z,0.12
2017-06-17T07:18:15.907Z,0.12
2017-06-17T07:19:09.970Z,0.12
2017-06-17T07:20:10.051Z,0.12
2017-06-17T07:21:04.083Z,0.12
2017-06-17T07:21:58.100Z,0.12
2017-06-17T07:22:58.185Z,0.11
2017-06-17T07:23:46.214Z,0.12
2017-06-17T07:24:34.225Z,0.13
2017-06-17T07:25:22.254Z,0.13
2017-06-17T07:26:11.391Z,0.13
2017-06-17T07:26:59.410Z,0.13
2017-06-17T07:27:48.504Z,0.13
2017-06-17T07:28:36.486Z,0.13
2017-06-17T07:29:25.584Z,0.14
2017-06-17T07:30:20.644Z,0.14
2017-06-17T07:31:08.701Z,0.14
2017-06-17T07:31:57.950Z,0.14
2017-06-17T07:32:46.752Z,0.15
2017-06-17T07:33:35.863Z,0.15
2017-06-17T07:34:29.817Z,0.15
2017-06-17T07:35:18.979Z,0.15
2017-06-17T07:36:18.903Z,0.14
2017-06-17T07:37:08.053Z,0.13
2017-06-17T07:37:56.040Z,0.13
2017-06-17T07:38:56.041Z,0.13
2017-06-17T07:39:50.246Z,0.14
2017-06-17T07:40:45.160Z,0.14
2017-06-17T07:41:34.195Z,0.14
2017-06-17T07:42:28.285Z,0.15
2017-06-17T07:43:16.323Z,0.16
2017-06-17T07:44:10.418Z,0.17
2017-06-17T07:45:04.433Z,0.17
2017-06-17T07:45:53.515Z,0.16
2017-06-17T07:46:42.555Z,0.16
2017-06-17T07:47:36.629Z,0.15
2017-06-17T07:48:30.595Z,0.15
2017-06-17T07:49:24.664Z,0.16
2017-06-17T07:50:19.690Z,0.17
2017-06-17T07:51:07.766Z,0.17
2017-06-17T07:51:55.772Z,0.18
2017-06-17T07:52:55.881Z,0.18
2017-06-17T07:53:43.853Z,0.18
2017-06-17T07:54:38.940Z,0.18
2017-06-17T07:55:32.997Z,0.19
2017-06-17T07:56:27.057Z,0.18
2017-06-17T07:57:16.093Z,0.18
2017-06-17T07:58:05.159Z,0.19
2017-06-17T07:58:59.169Z,0.21
2017-06-17T07:59:47.243Z,0.22
2017-06-17T08:00:42.270Z,0.22
2017-06-17T08:01:37.312Z,0.19
2017-06-17T08:02:31.346Z,0.18
2017-06-17T08:03:25.462Z,0.20
2017-06-17T08:04:20.429Z,0.22
2017-06-17T08:05:14.530Z,0.23
2017-06-17T08:06:08.453Z,0.24
2017-06-17T08:07:03.525Z,0.24
2017-06-17T08:07:52.612Z,0.22
2017-06-17T08:08:47.598Z,0.21
2017-06-17T08:09:41.697Z,0.21
2017-06-17T08:10:36.865Z,0.22
2017-06-17T08:11:25.775Z,0.22
2017-06-17T08:12:26.826Z,0.21
2017-06-17T08:13:20.845Z,0.20
2017-06-17T08:14:08.936Z,0.20
2017-06-17T08:15:03.954Z,0.20
2017-06-17T08:15:53.034Z,0.20
2017-06-17T08:16:53.027Z,0.20
2017-06-17T08:17:48.070Z,0.19
2017-06-17T08:18:43.109Z,0.19
2017-06-17T08:19:43.237Z,0.19
2017-06-17T08:20:37.228Z,0.17
2017-06-17T08:21:31.247Z,0.17
2017-06-17T08:22:25.324Z,0.17
2017-06-17T08:23:20.361Z,0.17
2017-06-17T08:24:14.424Z,0.17
2017-06-17T08:25:03.527Z,0.18
2017-06-17T08:25:52.537Z,0.20
2017-06-17T08:26:41.527Z,0.21
2017-06-17T08:27:36.627Z,0.21
2017-06-17T08:28:31.669Z,0.20
2017-06-17T08:29:31.726Z,0.19
2017-06-17T08:30:25.787Z,0.19
2017-06-17T08:31:25.936Z,0.19
2017-06-17T08:32:19.884Z,0.19
2017-06-17T08:33:19.880Z,0.19
2017-06-17T08:34:14.996Z,0.20
2017-06-17T08:35:09.053Z,0.21
2017-06-17T08:35:57.150Z,0.22
2017-06-17T08:36:46.134Z,0.24
2017-06-17T08:37:40.144Z,0.26
2017-06-17T08:38:34.207Z,0.28
2017-06-17T08:39:28.305Z,0.29
2017-06-17T08:40:28.235Z,0.30
2017-06-17T08:41:22.401Z,0.31
2017-06-17T08:42:16.358Z,0.31
2017-06-17T08:43:11.463Z,0.32
2017-06-17T08:44:06.488Z,0.32
2017-06-17T08:45:00.556Z,0.33
2017-06-17T08:45:55.582Z,0.34
2017-06-17T08:46:49.617Z,0.35
2017-06-17T08:47:43.650Z,0.36
2017-06-17T08:48:32.752Z,0.37
2017-06-17T08:49:27.779Z,0.36
2017-06-17T08:50:16.918Z,0.35
2017-06-17T08:51:11.890Z,0.34
2017-06-17T08:52:01.098Z,0.34
2017-06-17T08:52:48.951Z,0.34
2017-06-17T08:53:44.063Z,0.34
2017-06-17T08:54:39.111Z,0.35
2017-06-17T08:55:33.136Z,0.36
2017-06-17T08:56:28.236Z,0.36
2017-06-17T08:57:22.274Z,0.35
2017-06-17T08:58:11.263Z,0.34
2017-06-17T08:59:00.367Z,0.32
2017-06-17T08:59:54.376Z,0.31
2017-06-17T09:00:55.477Z,0.29
2017-06-17T09:01:49.523Z,0.28
2017-06-17T09:02:49.548Z,0.29
2017-06-17T09:03:37.598Z,0.30
2017-06-17T09:04:32.612Z,0.30
2017-06-17T09:05:26.681Z,0.30
2017-06-17T09:06:27.802Z,0.30
2017-06-17T09:07:16.807Z,0.29
2017-06-17T09:08:11.981Z,0.28
2017-06-17T09:09:06.916Z,0.28
2017-06-17T09:09:55.948Z,0.28
2017-06-17T09:11:02.000Z,0.27
2017-06-17T09:11:57.063Z,0.25
2017-06-17T09:12:51.091Z,0.23
2017-06-17T09:13:51.155Z,0.23
2017-06-17T09:14:45.143Z,0.23
2017-06-17T09:15:45.181Z,0.23
2017-06-17T09:16:34.318Z,0.24
2017-06-17T09:17:34.329Z,0.23
2017-06-17T09:18:34.405Z,0.22
2017-06-17T09:19:34.440Z,0.23
2017-06-17T09:20:33.992Z,0.24
2017-06-17T09:21:28.938Z,0.25
2017-06-17T09:22:28.973Z,0.25
2017-06-17T09:23:22.992Z,0.25
2017-06-17T09:24:12.340Z,0.24
2017-06-17T09:25:06.324Z,0.23
2017-06-17T09:26:00.669Z,0.23
2017-06-17T09:26:54.288Z,0.24
2017-06-17T09:27:43.611Z,0.24
2017-06-17T09:28:37.628Z,0.24
2017-06-17T09:29:37.385Z,0.24
2017-06-17T09:30:31.500Z,0.24
2017-06-17T09:31:25.892Z,0.24
2017-06-17T09:32:21.177Z,0.25
2017-06-17T09:33:15.088Z,0.26
2017-06-17T09:34:04.209Z,0.25
2017-06-17T09:34:57.714Z,0.26
2017-06-17T09:35:46.107Z,0.28
2017-06-17T09:36:35.342Z,0.29
2017-06-17T09:37:28.920Z,0.29
2017-06-17T09:38:29.416Z,0.28
2017-06-17T09:39:23.502Z,0.27
2017-06-17T09:40:23.518Z,0.27
2017-06-17T09:41:12.720Z,0.28
2017-06-17T09:42:06.710Z,0.28
2017-06-17T09:43:01.656Z,0.28
2017-06-17T09:43:55.759Z,0.27
2017-06-17T09:44:55.825Z,0.27
2017-06-17T09:45:43.907Z,0.29
2017-06-17T09:46:43.955Z,0.30
2017-06-17T09:47:32.934Z,0.28
2017-06-17T09:48:21.995Z,0.26
2017-06-17T09:49:16.089Z,0.25
2017-06-17T09:50:11.130Z,0.24
2017-06-17T09:51:05.170Z,0.23
2017-06-17T09:51:54.257Z,0.22
2017-06-17T09:52:49.346Z,0.22
2017-06-17T09:53:43.323Z,0.23
2017-06-17T09:54:37.368Z,0.22
2017-06-17T09:55:25.454Z,0.20
2017-06-17T09:56:19.499Z,0.17
2017-06-17T09:57:13.777Z,0.16
2017-06-17T09:58:01.589Z,0.16
2017-06-17T09:58:49.661Z,0.16
2017-06-17T09:59:43.672Z,0.17
2017-06-17T10:00:37.777Z,0.17
2017-06-17T10:01:25.794Z,0.18
2017-06-17T10:02:14.853Z,0.17
2017-06-17T10:03:09.943Z,0.16
2017-06-17T10:03:57.974Z,0.16
2017-06-17T10:04:58.063Z,0.14
2017-06-17T10:05:58.001Z,0.14
2017-06-17T10:06:52.083Z,0.14
2017-06-17T10:07:52.177Z,0.15
2017-06-17T10:08:41.182Z,0.16
2017-06-17T10:09:30.156Z,0.15
2017-06-17T10:10:24.224Z,0.16
2017-06-17T10:11:13.310Z,0.17
2017-06-17T10:12:07.361Z,0.17
2017-06-17T10:12:56.657Z,0.18
2017-06-17T10:13:51.431Z,0.19
2017-06-17T10:14:45.527Z,0.20
2017-06-17T10:15:39.541Z,0.21
2017-06-17T10:16:34.569Z,0.22
2017-06-17T10:17:23.632Z,0.23
2017-06-17T10:18:23.708Z,0.24
2017-06-17T10:19:23.766Z,0.25
2017-06-17T10:20:18.793Z,0.26
2017-06-17T10:21:06.778Z,0.27
2017-06-17T10:22:01.821Z,0.26
2017-06-17T10:22:55.928Z,0.25
2017-06-17T10:23:49.676Z,0.23
2017-06-17T10:24:37.875Z,0.23
2017-06-17T10:25:25.518Z,0.24
2017-06-17T10:26:26.028Z,0.26
2017-06-17T10:27:15.061Z,0.27
2017-06-17T10:28:08.669Z,0.29
2017-06-17T10:29:03.784Z,0.29
2017-06-17T10:29:58.753Z,0.19
2017-06-17T10:30:48.170Z,0.29
2017-06-17T10:31:42.417Z,0.30
2017-06-17T10:32:37.390Z,0.30
2017-06-17T10:33:36.964Z,0.29
2017-06-17T10:34:31.071Z,0.29
2017-06-17T10:35:25.358Z,0.30
2017-06-17T10:36:19.738Z,0.33
2017-06-17T10:37:19.514Z,0.37
2017-06-17T10:38:14.316Z,0.40
2017-06-17T10:39:08.682Z,0.43
2017-06-17T10:40:02.883Z,0.45
2017-06-17T10:40:56.933Z,0.45
2017-06-17T10:41:57.972Z,0.47
2017-06-17T10:42:47.046Z,0.48
2017-06-17T10:43:42.095Z,0.47
2017-06-17T10:44:36.109Z,0.44
2017-06-17T10:45:25.255Z,0.42
2017-06-17T10:46:13.244Z,0.41
2017-06-17T10:47:08.308Z,0.39
2017-06-17T10:47:57.397Z,0.38
2017-06-17T10:48:51.379Z,0.36
2017-06-17T10:49:46.487Z,0.34
2017-06-17T10:50:40.512Z,0.34
2017-06-17T10:51:35.600Z,0.32
2017-06-17T10:52:30.208Z,0.31
2017-06-17T10:53:30.493Z,0.31
2017-06-17T10:54:25.728Z,0.31
2017-06-17T10:55:21.046Z,0.30
2017-06-17T10:56:14.800Z,0.29
2017-06-17T10:57:14.858Z,0.28
2017-06-17T10:58:08.936Z,0.28
2017-06-17T10:59:03.579Z,0.29
2017-06-17T10:59:58.794Z,0.28
2017-06-17T11:00:54.053Z,0.29
2017-06-17T11:01:42.183Z,0.32
2017-06-17T11:02:30.170Z,0.33
2017-06-17T11:03:30.218Z,0.32
2017-06-17T11:04:18.301Z,0.31
2017-06-17T11:05:13.180Z,0.30
2017-06-17T11:06:08.397Z,0.31
2017-06-17T11:07:08.473Z,0.31
2017-06-17T11:08:03.465Z,0.27
2017-06-17T11:09:03.546Z,0.24
2017-06-17T11:09:52.549Z,0.24
2017-06-17T11:10:46.391Z,0.26
2017-06-17T11:11:40.664Z,0.27
2017-06-17T11:12:34.770Z,0.27
2017-06-17T11:13:34.765Z,0.27
2017-06-17T11:14:23.809Z,0.29
2017-06-17T11:15:18.922Z,0.34
2017-06-17T11:16:07.996Z,0.38
2017-06-17T11:17:01.965Z,0.38
2017-06-17T11:17:56.072Z,0.37
2017-06-17T11:18:45.090Z,0.36
2017-06-17T11:19:34.176Z,0.33
2017-06-17T11:20:23.265Z,0.30
2017-06-17T11:21:18.241Z,0.26
2017-06-17T11:22:18.278Z,0.24
2017-06-17T11:23:12.652Z,0.24
2017-06-17T11:24:06.386Z,0.28
2017-06-17T11:25:06.427Z,0.28
2017-06-17T11:26:00.482Z,0.27
2017-06-17T11:26:54.556Z,0.30
2017-06-17T11:27:42.627Z,0.30
2017-06-17T11:28:42.993Z,0.29
2017-06-17T11:29:30.695Z,0.30
2017-06-17T11:30:25.731Z,0.30
2017-06-17T11:31:25.938Z,0.27
2017-06-17T11:32:14.847Z,0.25
2017-06-17T11:33:08.899Z,0.23
2017-06-17T11:34:09.305Z,0.22
2017-06-17T11:34:58.021Z,0.23
2017-06-17T11:35:47.046Z,0.23
2017-06-17T11:36:41.171Z,0.21
2017-06-17T11:37:35.214Z,0.19
2017-06-17T11:38:24.253Z,0.19
2017-06-17T11:39:24.572Z,0.19
2017-06-17T11:40:18.364Z,0.20
2017-06-17T11:41:13.374Z,0.21
2017-06-17T11:42:07.371Z,0.22
2017-06-17T11:43:01.435Z,0.23
2017-06-17T11:43:56.489Z,0.25
2017-06-17T11:44:57.840Z,0.24
2017-06-17T11:45:51.582Z,0.24
2017-06-17T11:46:45.627Z,0.24
2017-06-17T11:47:40.689Z,0.24
2017-06-17T11:48:28.717Z,0.24
2017-06-17T11:49:22.759Z,0.24
2017-06-17T11:50:24.548Z,0.23
2017-06-17T11:51:17.951Z,0.22
2017-06-17T11:52:12.006Z,0.24
2017-06-17T11:53:06.035Z,0.27
2017-06-17T11:53:55.069Z,0.26
2017-06-17T11:54:49.124Z,0.23
2017-06-17T11:55:44.220Z,0.13
2017-06-17T11:56:38.232Z,0.19
2017-06-17T11:57:27.221Z,0.20
2017-06-17T11:58:22.286Z,0.19